createdAt,value
2023-03-30T00:01:17.715Z,78.25
2023-03-30T00:03:48.083Z,78.56
2023-03-30T00:06:23.593Z,78.04
2023-03-30T00:08:57.337Z,77.25
2023-03-30T00:11:27.151Z,77.02
2023-03-30T00:13:55.698Z,76.93
2023-03-30T00:16:24.103Z,77.38
2023-03-30T00:18:52.544Z,77.37
2023-03-30T00:21:21.431Z,76.95
2023-03-30T00:23:50.495Z,76.17
2023-03-30T00:26:19.209Z,75.84
2023-03-30T00:28:47.384Z,76.25
2023-03-30T00:31:15.781Z,76.12
2023-03-30T00:33:47.048Z,75.93
2023-03-30T00:36:17.266Z,77.20
2023-03-30T00:38:46.445Z,76.99
2023-03-30T00:41:16.147Z,76.60
2023-03-30T00:44:06.029Z,77.23
2023-03-30T00:46:35.083Z,76.95
2023-03-30T00:49:09.481Z,76.77
2023-03-30T00:51:42.759Z,76.58
2023-03-30T00:54:17.052Z,76.76
2023-03-30T00:56:46.318Z,76.53
2023-03-30T00:59:14.930Z,76.13
2023-03-30T01:01:50.122Z,75.60
2023-03-30T01:04:19.098Z,76.01
2023-03-30T01:06:49.068Z,76.02
2023-03-30T01:09:18.487Z,76.06
2023-03-30T01:11:47.152Z,76.12
2023-03-30T01:14:16.977Z,78.09
2023-03-30T01:17:01.785Z,78.96
2023-03-30T01:19:45.592Z,78.29
2023-03-30T01:22:37.112Z,81.56
2023-03-30T01:25:50.755Z,81.27
2023-03-30T01:28:36.128Z,82.52
2023-03-30T01:31:12.584Z,80.45
2023-03-30T01:34:08.830Z,80.13
2023-03-30T01:36:51.547Z,81.31
2023-03-30T01:39:27.332Z,81.37
2023-03-30T01:42:04.789Z,80.89
2023-03-30T01:44:41.777Z,80.30
2023-03-30T01:47:18.344Z,80.23
2023-03-30T01:49:59.725Z,80.85
2023-03-30T01:52:53.956Z,79.97
2023-03-30T01:55:47.380Z,79.65
2023-03-30T01:58:37.982Z,79.48
2023-03-30T02:01:10.153Z,79.20
2023-03-30T02:03:43.324Z,79.41
2023-03-30T02:06:20.659Z,79.93
2023-03-30T02:08:50.768Z,80.16
2023-03-30T02:11:19.227Z,79.77
2023-03-30T02:13:47.916Z,79.13
2023-03-30T02:16:22.787Z,79.35
2023-03-30T02:18:51.738Z,78.94
2023-03-30T02:21:20.013Z,78.92
2023-03-30T02:23:49.009Z,79.31
2023-03-30T02:26:17.492Z,79.95
2023-03-30T02:28:47.302Z,79.97
2023-03-30T02:31:17.076Z,79.90
2023-03-30T02:33:57.064Z,79.25
2023-03-30T02:36:42.001Z,79.28
2023-03-30T02:39:28.955Z,79.79
2023-03-30T02:41:57.327Z,79.22
2023-03-30T02:44:48.235Z,79.22
2023-03-30T02:47:37.145Z,81.18
2023-03-30T02:50:31.489Z,80.82
2023-03-30T02:53:23.490Z,81.29
2023-03-30T02:56:04.274Z,80.59
2023-03-30T02:58:48.022Z,80.55
2023-03-30T03:01:28.638Z,80.66
2023-03-30T03:04:04.419Z,80.42
2023-03-30T03:06:40.514Z,80.23
2023-03-30T03:09:09.458Z,80.11
2023-03-30T03:11:37.911Z,79.89
2023-03-30T03:14:08.102Z,79.89
2023-03-30T03:16:36.411Z,79.74
2023-03-30T03:19:13.673Z,79.78
2023-03-30T03:21:42.350Z,79.82
2023-03-30T03:24:13.521Z,79.79
2023-03-30T03:27:02.714Z,79.59
2023-03-30T03:29:35.213Z,80.14
2023-03-30T03:32:04.033Z,79.84
2023-03-30T03:34:39.714Z,79.65
2023-03-30T03:37:08.564Z,79.79
2023-03-30T03:39:37.765Z,79.96
2023-03-30T03:42:11.683Z,79.82
2023-03-30T03:44:47.938Z,79.97
2023-03-30T03:47:17.029Z,79.72
2023-03-30T03:49:45.820Z,80.13
2023-03-30T03:52:14.000Z,80.27
2023-03-30T03:54:42.578Z,79.88
2023-03-30T03:57:11.498Z,80.09
2023-03-30T03:59:39.956Z,80.22
2023-03-30T04:02:08.273Z,80.58
2023-03-30T04:04:36.575Z,80.81
2023-03-30T04:07:05.809Z,80.40
2023-03-30T04:09:34.197Z,80.44
2023-03-30T04:12:02.771Z,80.68
2023-03-30T04:14:39.134Z,80.61
2023-03-30T04:17:15.068Z,80.99
2023-03-30T04:20:12.965Z,81.72
2023-03-30T04:23:02.147Z,81.38
2023-03-30T04:25:52.097Z,82.51
2023-03-30T04:29:00.433Z,83.38
2023-03-30T04:31:48.660Z,82.73
2023-03-30T04:34:31.289Z,82.71
2023-03-30T04:37:07.675Z,82.44
2023-03-30T04:40:13.361Z,83.33
2023-03-30T04:43:04.545Z,84.18
2023-03-30T04:45:53.451Z,84.50
2023-03-30T04:48:40.095Z,84.11
2023-03-30T04:51:35.095Z,83.79
2023-03-30T04:54:33.251Z,82.04
2023-03-30T04:57:21.207Z,80.88
2023-03-30T05:00:13.806Z,80.38
2023-03-30T05:02:42.234Z,78.45
2023-03-30T05:05:43.494Z,75.92
2023-03-30T05:08:19.754Z,72.20
2023-03-30T05:11:08.511Z,68.35
2023-03-30T05:13:53.029Z,69.31
2023-03-30T05:16:34.392Z,69.15
2023-03-30T05:19:26.182Z,68.89
2023-03-30T05:22:21.387Z,67.82
2023-03-30T05:25:13.126Z,66.04
2023-03-30T05:28:01.463Z,64.15
2023-03-30T05:30:44.690Z,60.98
2023-03-30T05:33:48.815Z,61.56
2023-03-30T05:36:20.606Z,64.44
2023-03-30T05:39:11.677Z,65.00
2023-03-30T05:41:52.034Z,63.29
2023-03-30T05:44:27.889Z,60.20
2023-03-30T05:47:14.708Z,56.78
2023-03-30T05:49:58.132Z,50.03
2023-03-30T05:53:02.457Z,48.47
2023-03-30T05:55:49.787Z,44.68
2023-03-30T05:58:34.232Z,43.94
2023-03-30T06:01:09.678Z,40.51
2023-03-30T06:03:40.373Z,36.43
2023-03-30T06:06:10.127Z,37.22
2023-03-30T06:08:42.042Z,37.34
2023-03-30T06:11:13.839Z,32.77
2023-03-30T06:13:46.833Z,29.84
2023-03-30T06:16:15.868Z,31.71
2023-03-30T06:18:45.329Z,31.09
2023-03-30T06:21:15.978Z,28.80
2023-03-30T06:24:09.126Z,27.89
2023-03-30T06:26:38.931Z,28.12
2023-03-30T06:29:07.834Z,28.36
2023-03-30T06:31:36.749Z,28.94
2023-03-30T06:34:25.282Z,28.18
2023-03-30T06:36:54.069Z,27.56
2023-03-30T06:39:25.589Z,26.83
2023-03-30T06:41:54.197Z,26.71
2023-03-30T06:44:42.855Z,25.52
2023-03-30T06:47:15.321Z,25.72
2023-03-30T06:49:44.018Z,25.48
2023-03-30T06:52:46.388Z,26.08
2023-03-30T06:55:15.584Z,25.61
2023-03-30T06:57:43.968Z,23.95
2023-03-30T07:00:13.981Z,24.83
2023-03-30T07:02:44.950Z,23.51
2023-03-30T07:05:33.678Z,24.38
2023-03-30T07:08:25.097Z,24.23
2023-03-30T07:10:54.602Z,22.89
2023-03-30T07:13:24.414Z,21.35
2023-03-30T07:15:53.203Z,20.84
2023-03-30T07:18:21.583Z,21.42
2023-03-30T07:20:51.571Z,21.54
2023-03-30T07:23:22.238Z,21.20
2023-03-30T07:25:53.286Z,22.15
2023-03-30T07:28:26.036Z,22.79
2023-03-30T07:30:54.530Z,22.37
2023-03-30T07:33:23.762Z,21.60
2023-03-30T07:35:53.233Z,22.36
2023-03-30T07:38:25.000Z,23.31
2023-03-30T07:40:56.059Z,21.52
2023-03-30T07:43:27.322Z,20.91
2023-03-30T07:45:56.878Z,21.05
2023-03-30T07:48:31.022Z,21.55
2023-03-30T07:51:04.343Z,22.02
2023-03-30T07:53:34.421Z,22.07
2023-03-30T07:56:04.544Z,21.98
2023-03-30T07:58:40.507Z,21.90
2023-03-30T08:01:08.986Z,21.18
2023-03-30T08:03:57.486Z,21.38
2023-03-30T08:06:27.562Z,21.47
2023-03-30T08:08:58.702Z,21.99
2023-03-30T08:11:27.590Z,21.23
2023-03-30T08:13:55.962Z,20.39
2023-03-30T08:16:24.414Z,20.84
2023-03-30T08:18:55.016Z,20.72
2023-03-30T08:21:26.267Z,21.96
2023-03-30T08:23:58.084Z,21.19
2023-03-30T08:26:28.467Z,21.44
2023-03-30T08:28:57.555Z,20.97
2023-03-30T08:31:26.238Z,21.51
2023-03-30T08:33:54.772Z,20.99
2023-03-30T08:36:23.361Z,19.95
2023-03-30T08:38:54.259Z,19.86
2023-03-30T08:41:24.988Z,20.05
2023-03-30T08:43:54.742Z,20.46
2023-03-30T08:46:23.057Z,20.05
2023-03-30T08:48:54.066Z,20.26
2023-03-30T08:51:29.309Z,19.84
2023-03-30T08:54:05.673Z,19.99
2023-03-30T08:56:43.286Z,20.09
2023-03-30T08:59:37.649Z,19.41
2023-03-30T09:02:27.766Z,19.63
2023-03-30T09:05:02.198Z,19.75
2023-03-30T09:07:37.293Z,20.61
2023-03-30T09:10:12.589Z,19.58
2023-03-30T09:12:46.661Z,19.68
2023-03-30T09:15:22.918Z,19.70
2023-03-30T09:18:20.079Z,18.78
2023-03-30T09:20:52.457Z,18.81
2023-03-30T09:23:21.750Z,19.10
2023-03-30T09:26:12.074Z,19.04
2023-03-30T09:29:16.458Z,18.62
2023-03-30T09:32:21.693Z,18.67
2023-03-30T09:35:01.141Z,18.80
2023-03-30T09:37:30.676Z,18.72
2023-03-30T09:39:59.551Z,18.74
2023-03-30T09:43:16.377Z,18.63
2023-03-30T09:45:45.804Z,18.45
2023-03-30T09:48:16.492Z,18.44
2023-03-30T09:50:46.903Z,18.85
2023-03-30T09:53:26.799Z,18.54
2023-03-30T09:56:00.504Z,18.30
2023-03-30T09:58:34.276Z,18.21
2023-03-30T10:01:24.403Z,18.28
2023-03-30T10:04:11.129Z,18.44
2023-03-30T10:06:47.494Z,18.76
2023-03-30T10:09:21.495Z,18.49
2023-03-30T10:11:55.376Z,18.48
2023-03-30T10:14:37.364Z,18.59
2023-03-30T10:17:06.741Z,18.70
2023-03-30T10:19:38.446Z,18.87
2023-03-30T10:22:17.909Z,18.61
2023-03-30T10:24:55.575Z,18.57
2023-03-30T10:27:34.519Z,18.52
2023-03-30T10:30:11.267Z,18.20
2023-03-30T10:32:46.830Z,18.39
2023-03-30T10:35:22.350Z,18.49
2023-03-30T10:37:54.633Z,18.87
2023-03-30T10:40:36.811Z,18.81
2023-03-30T10:43:08.769Z,19.37
2023-03-30T10:45:44.758Z,19.54
2023-03-30T10:48:52.153Z,19.39
2023-03-30T10:51:31.339Z,18.87
2023-03-30T10:54:27.707Z,18.92
2023-03-30T10:57:03.415Z,18.42
2023-03-30T10:59:53.067Z,18.47
2023-03-30T11:02:46.666Z,18.63
2023-03-30T11:05:32.011Z,18.98
2023-03-30T11:08:04.455Z,18.79
2023-03-30T11:10:48.197Z,18.76
2023-03-30T11:13:35.388Z,18.78
2023-03-30T11:16:27.069Z,19.09
2023-03-30T11:19:12.763Z,19.32
2023-03-30T11:21:50.527Z,19.28
2023-03-30T11:24:21.779Z,18.82
2023-03-30T11:26:56.395Z,19.30
2023-03-30T11:29:53.604Z,19.11
2023-03-30T11:32:42.037Z,19.14
2023-03-30T11:35:30.266Z,19.64
2023-03-30T11:38:01.900Z,19.61
2023-03-30T11:40:43.982Z,19.52
2023-03-30T11:43:15.208Z,19.32
2023-03-30T11:46:00.723Z,19.57
2023-03-30T11:48:38.366Z,19.76
2023-03-30T11:51:24.731Z,19.15
2023-03-30T11:54:21.308Z,19.13
2023-03-30T11:56:58.568Z,18.97
2023-03-30T11:59:54.588Z,19.24
2023-03-30T12:02:36.747Z,19.25
2023-03-30T12:05:38.033Z,18.62
2023-03-30T12:08:18.503Z,18.80
2023-03-30T12:11:02.617Z,18.52
2023-03-30T12:13:44.575Z,18.10
2023-03-30T12:16:28.400Z,18.37
2023-03-30T12:19:15.704Z,18.24
2023-03-30T12:21:53.302Z,18.92
2023-03-30T12:24:43.799Z,18.87
2023-03-30T12:27:12.172Z,19.20
2023-03-30T12:30:02.429Z,18.91
2023-03-30T12:32:35.987Z,18.72
2023-03-30T12:35:43.093Z,19.01
2023-03-30T12:38:22.122Z,19.09
2023-03-30T12:41:14.764Z,19.21
2023-03-30T12:43:43.224Z,19.25
2023-03-30T12:46:26.633Z,19.46
2023-03-30T12:48:55.038Z,19.01
2023-03-30T12:51:58.842Z,18.82
2023-03-30T12:54:30.090Z,19.44
2023-03-30T12:56:58.284Z,19.19
2023-03-30T12:59:36.399Z,18.96
2023-03-30T13:02:33.926Z,19.02
2023-03-30T13:05:03.219Z,19.11
2023-03-30T13:07:36.382Z,19.25
2023-03-30T13:10:30.211Z,18.94
2023-03-30T13:13:00.275Z,19.57
2023-03-30T13:15:47.225Z,19.84
2023-03-30T13:18:40.966Z,19.87
2023-03-30T13:21:24.802Z,19.78
2023-03-30T13:24:46.163Z,19.56
2023-03-30T13:27:14.453Z,19.33
2023-03-30T13:29:52.763Z,19.48
2023-03-30T13:32:39.354Z,19.40
2023-03-30T13:35:18.499Z,19.33
2023-03-30T13:38:21.174Z,19.28
2023-03-30T13:41:29.386Z,19.16
2023-03-30T13:44:03.403Z,19.02
2023-03-30T13:46:47.375Z,18.92
2023-03-30T13:49:50.902Z,18.94
2023-03-30T13:52:28.844Z,18.72
2023-03-30T13:54:58.120Z,19.27
2023-03-30T13:57:35.673Z,19.28
2023-03-30T14:00:28.696Z,19.11
2023-03-30T14:02:57.091Z,19.34
2023-03-30T14:05:28.032Z,19.58
2023-03-30T14:07:59.671Z,19.01
2023-03-30T14:10:29.236Z,19.28
2023-03-30T14:12:58.090Z,19.86
2023-03-30T14:15:37.899Z,19.97
2023-03-30T14:18:13.920Z,20.07
2023-03-30T14:20:50.139Z,20.31
2023-03-30T14:23:23.712Z,20.63
2023-03-30T14:26:01.297Z,20.51
2023-03-30T14:28:34.323Z,20.55
2023-03-30T14:31:11.545Z,20.91
2023-03-30T14:33:41.322Z,20.87
2023-03-30T14:36:12.759Z,21.55
2023-03-30T14:38:52.824Z,21.79
2023-03-30T14:41:27.749Z,21.78
2023-03-30T14:43:57.278Z,21.95
2023-03-30T14:46:32.913Z,22.01
2023-03-30T14:49:01.708Z,21.56
2023-03-30T14:51:40.643Z,21.72
2023-03-30T14:54:15.779Z,22.04
2023-03-30T14:56:58.984Z,22.23
2023-03-30T14:59:29.011Z,22.33
2023-03-30T15:01:58.353Z,22.42
2023-03-30T15:04:34.500Z,22.96
2023-03-30T15:07:05.864Z,23.10
2023-03-30T15:09:39.333Z,23.26
2023-03-30T15:12:08.629Z,23.15
2023-03-30T15:14:40.481Z,23.36
2023-03-30T15:17:18.489Z,23.24
2023-03-30T15:19:50.040Z,23.18
2023-03-30T15:22:27.179Z,23.19
2023-03-30T15:24:59.160Z,23.28
2023-03-30T15:27:28.152Z,23.27
2023-03-30T15:29:59.201Z,23.05
2023-03-30T15:32:40.143Z,23.06
2023-03-30T15:35:14.376Z,22.91
2023-03-30T15:37:57.025Z,23.27
2023-03-30T15:40:30.636Z,23.58
2023-03-30T15:43:16.717Z,23.62
2023-03-30T15:46:07.865Z,24.00
2023-03-30T15:48:51.316Z,24.41
2023-03-30T15:51:37.978Z,24.61
2023-03-30T15:54:21.612Z,24.86
2023-03-30T15:57:11.361Z,24.89
2023-03-30T15:59:52.579Z,25.05
2023-03-30T16:02:22.273Z,25.35
2023-03-30T16:04:51.859Z,25.48
2023-03-30T16:07:22.723Z,25.57
2023-03-30T16:09:51.728Z,25.69
2023-03-30T16:12:28.550Z,25.73
2023-03-30T16:14:58.773Z,25.90
2023-03-30T16:17:27.350Z,26.18
2023-03-30T16:19:55.904Z,26.29
2023-03-30T16:22:24.211Z,26.36
2023-03-30T16:24:53.464Z,26.52
2023-03-30T16:27:22.460Z,26.64
2023-03-30T16:29:50.708Z,26.64
2023-03-30T16:32:19.374Z,26.70
2023-03-30T16:34:47.601Z,27.14
2023-03-30T16:37:15.976Z,27.40
2023-03-30T16:39:46.910Z,27.40
2023-03-30T16:42:15.821Z,27.77
2023-03-30T16:44:44.244Z,28.02
2023-03-30T16:47:12.566Z,28.31
2023-03-30T16:49:40.842Z,28.12
2023-03-30T16:52:10.040Z,28.26
2023-03-30T16:54:38.524Z,28.89
2023-03-30T16:57:09.798Z,28.98
2023-03-30T16:59:38.558Z,29.02
2023-03-30T17:02:13.025Z,29.34
2023-03-30T17:04:45.677Z,29.21
2023-03-30T17:07:13.938Z,29.75
2023-03-30T17:09:42.212Z,29.94
2023-03-30T17:12:10.694Z,30.08
2023-03-30T17:14:42.560Z,30.31
2023-03-30T17:17:12.162Z,30.50
2023-03-30T17:19:41.000Z,30.28
2023-03-30T17:22:09.111Z,30.83
2023-03-30T17:24:37.198Z,30.71
2023-03-30T17:27:06.499Z,30.78
2023-03-30T17:29:35.043Z,31.02
2023-03-30T17:32:06.666Z,30.89
2023-03-30T17:34:34.822Z,30.92
2023-03-30T17:37:03.295Z,30.97
2023-03-30T17:39:31.794Z,31.15
2023-03-30T17:42:01.075Z,31.08
2023-03-30T17:44:29.657Z,31.55
2023-03-30T17:46:58.239Z,31.62
2023-03-30T17:49:26.616Z,31.97
2023-03-30T17:51:54.787Z,31.71
2023-03-30T17:54:24.097Z,31.71
2023-03-30T17:56:52.776Z,31.78
2023-03-30T17:59:21.269Z,32.11
2023-03-30T18:01:49.527Z,32.06
2023-03-30T18:04:17.714Z,31.88
2023-03-30T18:06:48.908Z,32.09
2023-03-30T18:09:17.363Z,32.16
2023-03-30T18:11:45.825Z,32.34
2023-03-30T18:14:14.217Z,32.33
2023-03-30T18:16:44.799Z,32.44
2023-03-30T18:19:14.148Z,32.47
2023-03-30T18:21:44.774Z,32.44
2023-03-30T18:24:12.941Z,32.68
2023-03-30T18:26:43.176Z,32.76
2023-03-30T18:29:22.298Z,32.90
2023-03-30T18:31:51.208Z,33.13
2023-03-30T18:34:19.775Z,33.28
2023-03-30T18:36:48.146Z,33.40
2023-03-30T18:39:20.141Z,33.65
2023-03-30T18:41:52.260Z,33.70
2023-03-30T18:44:20.863Z,33.79
2023-03-30T18:46:51.918Z,34.08
2023-03-30T18:49:23.978Z,34.16
2023-03-30T18:51:52.749Z,34.29
2023-03-30T18:54:21.138Z,34.32
2023-03-30T18:56:51.612Z,34.53
2023-03-30T18:59:23.116Z,34.54
2023-03-30T19:01:51.782Z,34.60
2023-03-30T19:04:19.972Z,34.60
2023-03-30T19:06:48.150Z,34.93
2023-03-30T19:09:16.732Z,35.20
2023-03-30T19:11:45.011Z,35.51
2023-03-30T19:14:13.184Z,35.65
2023-03-30T19:16:42.164Z,35.58
2023-03-30T19:19:14.911Z,35.89
2023-03-30T19:21:43.749Z,35.94
2023-03-30T19:24:14.072Z,36.10
2023-03-30T19:26:42.352Z,35.84
2023-03-30T19:29:11.183Z,36.07
2023-03-30T19:31:39.454Z,36.03
2023-03-30T19:34:07.902Z,35.99
2023-03-30T19:36:36.603Z,36.19
2023-03-30T19:39:05.064Z,36.27
2023-03-30T19:41:33.479Z,36.28
2023-03-30T19:44:01.930Z,36.23
2023-03-30T19:46:30.038Z,36.25
2023-03-30T19:48:58.488Z,36.21
2023-03-30T19:51:26.863Z,36.22
2023-03-30T19:53:57.247Z,36.48
2023-03-30T19:56:26.810Z,36.73
2023-03-30T19:58:55.276Z,36.70
2023-03-30T20:01:23.714Z,37.20
2023-03-30T20:03:52.383Z,37.54
2023-03-30T20:06:20.623Z,37.77
2023-03-30T20:08:49.025Z,38.00
2023-03-30T20:11:17.375Z,38.33
2023-03-30T20:13:46.175Z,38.57
2023-03-30T20:16:22.830Z,38.70
2023-03-30T20:18:55.425Z,39.19
2023-03-30T20:21:26.379Z,39.87
2023-03-30T20:23:58.730Z,40.19
2023-03-30T20:26:29.378Z,40.28
2023-03-30T20:28:57.433Z,40.32
2023-03-30T20:31:26.161Z,40.73
2023-03-30T20:33:54.805Z,40.72
2023-03-30T20:36:23.598Z,40.49
2023-03-30T20:38:52.176Z,40.33
2023-03-30T20:41:21.901Z,40.56
2023-03-30T20:43:56.974Z,40.29
2023-03-30T20:46:35.041Z,40.52
2023-03-30T20:49:04.029Z,40.11
2023-03-30T20:51:32.814Z,40.26
2023-03-30T20:54:01.411Z,40.36
2023-03-30T20:56:29.876Z,40.30
2023-03-30T20:58:58.474Z,40.53
2023-03-30T21:01:29.478Z,40.95
2023-03-30T21:03:59.662Z,41.06
2023-03-30T21:06:30.484Z,41.04
2023-03-30T21:09:01.852Z,41.10
2023-03-30T21:11:33.624Z,41.17
2023-03-30T21:14:02.239Z,41.53
2023-03-30T21:16:31.078Z,41.65
2023-03-30T21:18:59.539Z,42.08
2023-03-30T21:21:28.019Z,42.08
2023-03-30T21:23:57.547Z,42.44
2023-03-30T21:26:26.641Z,42.77
2023-03-30T21:28:55.883Z,42.66
2023-03-30T21:31:24.664Z,42.84
2023-03-30T21:33:53.586Z,42.80
2023-03-30T21:36:22.039Z,42.88
2023-03-30T21:38:50.973Z,43.05
2023-03-30T21:41:21.305Z,43.08
2023-03-30T21:43:49.741Z,43.04
2023-03-30T21:46:20.696Z,43.22
2023-03-30T21:48:53.693Z,43.11
2023-03-30T21:51:28.854Z,42.98
2023-03-30T21:53:58.237Z,42.88
2023-03-30T21:56:29.583Z,42.86
2023-03-30T21:58:59.187Z,42.68
2023-03-30T22:01:28.189Z,42.50
2023-03-30T22:03:56.945Z,42.65
2023-03-30T22:06:25.476Z,42.62
2023-03-30T22:08:53.950Z,42.58
2023-03-30T22:11:25.476Z,42.21
2023-03-30T22:13:55.492Z,42.07
2023-03-30T22:16:28.428Z,41.85
2023-03-30T22:18:57.284Z,41.85
2023-03-30T22:21:34.626Z,41.43
2023-03-30T22:24:04.792Z,41.10
2023-03-30T22:26:33.990Z,41.01
2023-03-30T22:29:02.374Z,40.46
2023-03-30T22:31:30.976Z,39.88
2023-03-30T22:33:59.651Z,39.70
2023-03-30T22:36:31.015Z,39.55
2023-03-30T22:39:01.103Z,39.47
2023-03-30T22:41:31.136Z,39.52
2023-03-30T22:43:59.509Z,39.18
2023-03-30T22:46:28.197Z,38.95
2023-03-30T22:48:56.761Z,38.93
2023-03-30T22:51:28.549Z,38.63
2023-03-30T22:53:58.785Z,38.72
2023-03-30T22:56:28.929Z,38.49
2023-03-30T22:58:59.095Z,38.54
2023-03-30T23:01:29.380Z,38.55
2023-03-30T23:03:59.661Z,38.51
2023-03-30T23:06:28.133Z,38.58
2023-03-30T23:08:56.403Z,38.66
2023-03-30T23:11:26.621Z,39.00
2023-03-30T23:13:55.816Z,39.23
2023-03-30T23:16:24.330Z,39.61
2023-03-30T23:18:52.494Z,39.91
2023-03-30T23:21:22.502Z,40.38
2023-03-30T23:23:51.176Z,40.28
2023-03-30T23:26:19.749Z,40.59
2023-03-30T23:28:48.046Z,40.60
2023-03-30T23:31:19.064Z,40.58
2023-03-30T23:33:47.350Z,40.92
2023-03-30T23:36:19.432Z,40.92
2023-03-30T23:38:48.391Z,41.39
2023-03-30T23:41:18.553Z,41.66
2023-03-30T23:43:47.741Z,42.23
2023-03-30T23:46:16.343Z,42.63
2023-03-30T23:48:44.600Z,42.72
2023-03-30T23:51:12.992Z,43.06
2023-03-30T23:53:41.876Z,42.82
2023-03-30T23:56:17.378Z,42.95
2023-03-30T23:58:46.521Z,43.00
